Time;durP1;ratioP1;P1;durP2;ratioP2;P2;SDS_P1;SDS_P2;PMS_P1;PMS_P2;Temp;Humidity;BMP_temperature;BMP_pressure;BME280_temperature;BME280_humidity;BME280_pressure;Samples;Min_cycle;Max_cycle;Signal;HPM_P1;HPM_P2
2022/08/19 00:02:10;;;;;;;11.27;8.40;;;;;;;20.78;65.27;96115.50;5135090;27;20046;-64
2022/08/19 00:04:37;;;;;;;8.93;7.93;;;;;;;20.76;65.44;96108.59;5134776;27;20103;-64
2022/08/19 00:07:06;;;;;;;9.80;7.82;;;;;;;20.73;64.93;96112.38;5134660;27;20557;-64
2022/08/19 00:09:35;;;;;;;10.90;8.00;;;;;;;20.76;64.86;96109.47;5134594;27;20118;-67
2022/08/19 00:12:03;;;;;;;9.15;7.72;;;;;;;20.75;65.47;96112.25;5134642;27;20047;-63
2022/08/19 00:14:31;;;;;;;9.35;8.35;;;;;;;20.72;65.52;96108.03;5134676;27;20116;-66
2022/08/19 00:16:58;;;;;;;9.68;8.07;;;;;;;20.67;65.82;96111.09;5134469;27;20058;-68
2022/08/19 00:19:26;;;;;;;9.48;8.25;;;;;;;20.58;65.94;96103.91;5134575;27;20144;-67
2022/08/19 00:21:55;;;;;;;13.50;9.05;;;;;;;20.54;65.92;96095.38;5134494;27;20043;-63
2022/08/19 00:24:22;;;;;;;9.23;8.15;;;;;;;20.53;65.93;96099.00;5134475;27;20099;-64
2022/08/19 00:26:51;;;;;;;9.23;8.23;;;;;;;20.54;66.61;96103.34;5134405;27;20047;-61
2022/08/19 00:29:20;;;;;;;9.02;8.13;;;;;;;20.51;66.43;96100.09;5134427;27;20071;-63
2022/08/19 00:31:49;;;;;;;10.52;8.43;;;;;;;20.41;66.67;96095.56;5134394;27;20404;-65
2022/08/19 00:34:17;;;;;;;13.23;8.30;;;;;;;20.37;67.19;96094.16;5134454;27;20050;-65
2022/08/19 00:36:45;;;;;;;9.45;7.93;;;;;;;20.31;67.16;96095.53;5134288;27;20473;-62
2022/08/19 00:39:13;;;;;;;11.32;8.73;;;;;;;20.29;67.16;96086.84;5134619;27;20043;-62
2022/08/19 00:41:41;;;;;;;9.80;8.80;;;;;;;20.26;67.41;96084.44;5134287;27;20043;-62
2022/08/19 00:44:13;;;;;;;13.18;9.00;;;;;;;20.30;67.40;96093.00;5134088;27;20055;-62
2022/08/19 00:46:43;;;;;;;10.95;8.23;;;;;;;20.32;67.06;96093.72;5134224;27;20467;-64
2022/08/19 00:49:15;;;;;;;8.98;8.07;;;;;;;20.32;67.42;96094.53;5134288;28;20101;-65
2022/08/19 00:51:43;;;;;;;9.80;8.43;;;;;;;20.29;67.46;96096.63;5134060;28;20062;-60
2022/08/19 00:54:11;;;;;;;12.00;9.15;;;;;;;20.17;67.79;96091.38;5134039;27;20422;-66
2022/08/19 00:56:38;;;;;;;11.93;8.65;;;;;;;20.08;68.24;96089.50;5134184;27;20051;-60
2022/08/19 00:59:08;;;;;;;11.13;9.10;;;;;;;20.05;68.60;96087.94;5133780;27;20130;-60
2022/08/19 01:01:37;;;;;;;14.05;8.43;;;;;;;20.03;68.11;96092.53;5134087;28;20061;-62
2022/08/19 01:04:05;;;;;;;9.77;8.73;;;;;;;20.05;68.39;96092.41;5133934;27;20047;-65
2022/08/19 01:06:33;;;;;;;9.88;8.38;;;;;;;20.02;68.31;96090.84;5133860;28;20057;-63
2022/08/19 01:09:00;;;;;;;10.68;8.45;;;;;;;20.01;67.94;96091.81;5133845;28;20051;-64
2022/08/19 01:11:28;;;;;;;11.38;9.98;;;;;;;20.03;67.79;96102.31;5133661;28;20043;-64
2022/08/19 01:13:56;;;;;;;9.75;8.65;;;;;;;20.04;67.95;96098.69;5133827;27;20055;-61
2022/08/19 01:16:26;;;;;;;10.25;8.95;;;;;;;19.98;68.43;96093.88;5133971;27;20075;-62
2022/08/19 01:18:56;;;;;;;12.63;8.75;;;;;;;19.99;68.22;96093.75;5133960;27;20047;-63
2022/08/19 01:21:30;;;;;;;10.40;9.18;;;;;;;20.01;68.56;96099.78;5134068;28;20054;-59
2022/08/19 01:23:58;;;;;;;10.73;8.82;;;;;;;20.01;68.84;96096.28;5133818;27;20561;-66
2022/08/19 01:26:27;;;;;;;9.57;8.23;;;;;;;19.95;68.52;96093.16;5133664;27;20050;-63
2022/08/19 01:28:56;;;;;;;11.18;7.88;;;;;;;19.92;68.93;96088.09;5133859;28;20134;-65
2022/08/19 01:31:26;;;;;;;9.95;8.95;;;;;;;19.86;69.17;96091.25;5133841;27;20055;-63
2022/08/19 01:33:55;;;;;;;9.73;8.57;;;;;;;19.87;69.53;96084.97;5133806;28;20047;-64
2022/08/19 01:36:27;;;;;;;11.40;8.80;;;;;;;19.83;69.33;96084.41;5134267;27;20043;-63
2022/08/19 01:38:54;;;;;;;10.10;9.10;;;;;;;19.85;68.79;96084.28;5133754;27;20055;-59
2022/08/19 01:41:23;;;;;;;12.45;9.40;;;;;;;19.83;69.16;96088.84;5134228;27;20055;-61
2022/08/19 01:43:51;;;;;;;9.98;9.02;;;;;;;19.88;68.48;96099.09;5133597;27;20502;-64
2022/08/19 01:46:18;;;;;;;13.63;9.07;;;;;;;19.88;68.85;96097.28;5133749;27;20070;-64
2022/08/19 01:48:47;;;;;;;10.60;9.30;;;;;;;19.88;68.83;96091.97;5133519;27;20449;-65
2022/08/19 01:51:14;;;;;;;14.13;9.82;;;;;;;19.79;69.48;96104.19;5133419;28;20403;-63
2022/08/19 01:53:42;;;;;;;11.43;9.30;;;;;;;19.77;69.42;96099.97;5133645;27;20047;-69
2022/08/19 01:56:09;;;;;;;10.65;9.20;;;;;;;19.76;69.05;96103.59;5136513;27;20060;-69
2022/08/19 01:58:45;;;;;;;13.10;9.27;;;;;;;19.76;69.33;96099.16;5136986;27;20047;-68
2022/08/19 02:01:13;;;;;;;11.27;8.98;;;;;;;19.71;69.42;96098.66;5137269;27;20122;-66
2022/08/19 02:03:41;;;;;;;11.43;8.80;;;;;;;19.68;69.31;96101.56;5137351;27;20104;-66
2022/08/19 02:06:08;;;;;;;17.08;9.13;;;;;;;19.63;69.52;96104.59;5137083;27;20049;-66
2022/08/19 02:08:38;;;;;;;11.10;9.40;;;;;;;19.57;70.04;96107.78;5136955;27;20086;-65
2022/08/19 02:11:07;;;;;;;10.13;9.07;;;;;;;19.58;69.72;96112.09;5136840;27;20055;-65
2022/08/19 02:13:35;;;;;;;10.60;9.40;;;;;;;19.57;69.88;96111.25;5135645;27;20496;-65
2022/08/19 02:16:04;;;;;;;10.40;9.32;;;;;;;19.58;69.97;96114.75;5136765;27;20055;-65
2022/08/19 02:18:33;;;;;;;10.57;9.20;;;;;;;19.57;70.17;96113.91;5136763;27;20058;-67
2022/08/19 02:21:00;;;;;;;15.10;9.52;;;;;;;19.55;69.58;96112.34;5137076;27;20051;-66
2022/08/19 02:23:28;;;;;;;18.08;9.25;;;;;;;19.49;69.42;96120.81;5136859;27;20096;-65
2022/08/19 02:25:56;;;;;;;12.82;9.95;;;;;;;19.50;69.46;96119.84;5136838;27;20134;-63
2022/08/19 02:28:23;;;;;;;11.70;9.68;;;;;;;19.55;69.87;96123.81;5136534;27;20047;-61
2022/08/19 02:30:50;;;;;;;10.60;9.57;;;;;;;19.52;70.65;96113.44;5136600;27;20047;-67
2022/08/19 02:33:19;;;;;;;10.77;9.70;;;;;;;19.51;69.85;96118.88;5136509;27;20047;-67
2022/08/19 02:35:47;;;;;;;13.75;9.88;;;;;;;19.45;70.03;96122.88;5136428;27;20059;-67
2022/08/19 02:38:27;;;;;;;16.00;9.68;;;;;;;19.45;70.19;96120.22;5136366;27;20096;-63
2022/08/19 02:40:58;;;;;;;11.30;9.00;;;;;;;19.37;70.40;96122.63;5136369;27;20505;-62
2022/08/19 02:43:26;;;;;;;11.15;9.35;;;;;;;19.29;70.95;96118.81;5136488;27;20481;-63
2022/08/19 02:45:54;;;;;;;12.50;9.18;;;;;;;19.25;71.21;96119.16;5136444;27;20047;-64
2022/08/19 02:48:25;;;;;;;11.07;9.10;;;;;;;19.26;71.33;96121.69;5136286;27;20449;-68
2022/08/19 02:50:54;;;;;;;10.18;9.10;;;;;;;19.30;70.73;96124.97;5136441;27;20054;-67
2022/08/19 02:53:23;;;;;;;12.18;9.18;;;;;;;19.28;70.73;96127.72;5136146;27;20050;-64
2022/08/19 02:55:51;;;;;;;10.30;9.30;;;;;;;19.30;70.32;96130.25;5136156;27;20050;-63
2022/08/19 02:58:19;;;;;;;14.27;9.52;;;;;;;19.30;70.64;96135.56;5135967;27;20088;-60
2022/08/19 03:00:51;;;;;;;9.77;8.77;;;;;;;19.26;70.60;96134.94;5136103;27;20400;-65
2022/08/19 03:03:18;;;;;;;11.38;9.13;;;;;;;19.26;70.43;96139.44;5136108;27;20043;-61
2022/08/19 03:05:47;;;;;;;11.80;9.10;;;;;;;19.27;70.71;96138.44;5136034;27;20051;-59
2022/08/19 03:08:15;;;;;;;12.88;9.75;;;;;;;19.26;71.03;96137.59;5136209;27;20051;-62
2022/08/19 03:10:46;;;;;;;15.20;10.07;;;;;;;19.27;70.87;96143.75;5135764;27;20092;-66
2022/08/19 03:13:15;;;;;;;10.52;8.88;;;;;;;19.27;70.69;96143.75;5135946;27;20039;-65
2022/08/19 03:15:44;;;;;;;11.05;9.27;;;;;;;19.19;70.42;96141.72;5135741;27;20137;-63
2022/08/19 03:18:11;;;;;;;12.40;10.38;;;;;;;19.13;70.81;96142.19;5135753;27;20043;-68
2022/08/19 03:20:43;;;;;;;12.25;9.25;;;;;;;19.05;71.14;96153.34;5135642;27;20602;-62
2022/08/19 03:23:13;;;;;;;12.20;10.40;;;;;;;19.06;70.58;96157.72;5135723;27;20047;-64
2022/08/19 03:25:42;;;;;;;11.57;9.30;;;;;;;19.12;71.05;96159.91;5135664;27;20043;-59
2022/08/19 03:28:11;;;;;;;14.50;8.85;;;;;;;19.06;71.23;96160.38;5135557;27;20302;-65
2022/08/19 03:30:40;;;;;;;12.05;9.95;;;;;;;19.04;71.03;96160.50;5135785;27;20047;-62
2022/08/19 03:33:07;;;;;;;10.73;9.63;;;;;;;19.02;71.34;96161.56;5135390;27;20122;-60
2022/08/19 03:35:36;;;;;;;12.10;9.48;;;;;;;18.92;72.08;96162.28;5135490;27;20108;-62
2022/08/19 03:38:04;;;;;;;11.55;10.45;;;;;;;18.86;72.64;96167.22;5135408;27;20069;-64
2022/08/19 03:40:34;;;;;;;17.15;10.15;;;;;;;18.79;72.99;96167.69;5135312;27;20047;-63
2022/08/19 03:43:02;;;;;;;11.93;10.48;;;;;;;18.78;73.13;96168.66;5135388;27;20206;-62
2022/08/19 03:45:29;;;;;;;11.52;10.35;;;;;;;18.66;74.21;96165.16;5135128;27;20415;-64
2022/08/19 03:47:57;;;;;;;18.02;11.10;;;;;;;18.65;74.10;96166.13;5135195;27;20105;-65
2022/08/19 03:50:24;;;;;;;12.73;10.15;;;;;;;18.74;73.86;96163.72;5135041;27;20051;-59
2022/08/19 03:52:53;;;;;;;11.65;10.00;;;;;;;18.75;73.75;96160.94;5134996;27;20103;-66
2022/08/19 03:55:20;;;;;;;12.35;10.07;;;;;;;18.82;73.44;96161.31;5135023;27;20058;-59
2022/08/19 03:57:49;;;;;;;13.40;9.82;;;;;;;18.87;73.74;96160.97;5134809;27;20054;-68
2022/08/19 04:00:17;;;;;;;11.13;10.10;;;;;;;18.99;73.01;96159.16;5134990;27;20054;-59
2022/08/19 04:02:45;;;;;;;11.75;9.52;;;;;;;19.09;72.51;96159.31;5135026;27;20096;-61
2022/08/19 04:05:13;;;;;;;14.05;10.60;;;;;;;19.34;71.91;96171.47;5134773;27;20039;-62
2022/08/19 04:07:41;;;;;;;16.95;9.63;;;;;;;19.63;71.09;96165.59;5134752;27;20135;-63
2022/08/19 04:10:09;;;;;;;11.65;8.95;;;;;;;19.90;70.65;96172.28;5134822;27;20043;-66
2022/08/19 04:12:36;;;;;;;12.07;9.02;;;;;;;20.23;69.43;96168.84;5134625;27;20054;-62
2022/08/19 04:15:05;;;;;;;10.25;9.23;;;;;;;20.48;68.08;96170.28;5134543;27;20098;-63
2022/08/19 04:17:33;;;;;;;10.02;9.02;;;;;;;20.79;66.77;96172.97;5134032;27;20096;-67
2022/08/19 04:20:01;;;;;;;11.43;8.63;;;;;;;21.12;66.15;96183.50;5134466;27;20057;-63
2022/08/19 04:22:28;;;;;;;8.98;8.10;;;;;;;21.39;65.30;96183.88;5134339;27;20086;-64
2022/08/19 04:24:55;;;;;;;12.32;8.63;;;;;;;21.62;63.93;96181.88;5134417;27;20043;-66
2022/08/19 04:27:22;;;;;;;9.68;8.48;;;;;;;21.86;63.54;96183.34;5134364;27;20484;-64
2022/08/19 04:29:49;;;;;;;10.15;7.68;;;;;;;22.21;62.52;96186.44;5134217;27;20137;-63
2022/08/19 04:32:18;;;;;;;8.80;7.68;;;;;;;22.50;61.37;96182.94;5134124;27;20047;-64
2022/08/19 04:34:45;;;;;;;13.10;8.15;;;;;;;22.83;60.47;96186.13;5134237;27;20541;-63
2022/08/19 04:37:12;;;;;;;8.60;7.65;;;;;;;23.15;59.46;96192.03;5134266;27;20039;-69
2022/08/19 04:42:39;;;;;;;10.45;7.15;;;;;;;23.94;57.81;96185.50;5134426;27;20116;-64
2022/08/19 04:45:09;;;;;;;8.85;6.97;;;;;;;24.30;56.99;96184.72;5134097;27;20457;-63
2022/08/19 04:47:39;;;;;;;10.73;7.50;;;;;;;24.62;55.81;96183.28;5134168;27;20122;-63
2022/08/19 04:50:07;;;;;;;19.60;8.15;;;;;;;24.91;55.28;96182.19;5133993;27;20519;-66
2022/08/19 04:52:34;;;;;;;9.90;7.72;;;;;;;25.22;54.60;96180.84;5134034;28;20450;-63
2022/08/19 04:55:01;;;;;;;12.65;7.35;;;;;;;25.52;53.70;96181.31;5134039;27;20079;-65
2022/08/19 04:57:28;;;;;;;10.60;7.45;;;;;;;25.85;53.35;96178.75;5133887;28;20093;-64
2022/08/19 04:59:57;;;;;;;12.63;7.50;;;;;;;26.19;52.73;96173.47;5134015;28;20047;-65
2022/08/19 05:02:25;;;;;;;14.02;7.72;;;;;;;26.59;52.18;96174.50;5133952;27;20116;-63
2022/08/19 05:05:00;;;;;;;8.52;6.97;;;;;;;26.97;51.30;96170.44;5134068;28;20040;-65
2022/08/19 05:07:27;;;;;;;11.80;6.65;;;;;;;27.38;50.67;96170.34;5133986;27;20047;-68
2022/08/19 05:09:55;;;;;;;10.82;7.28;;;;;;;27.77;49.94;96162.47;5134230;27;20105;-67
2022/08/19 05:12:22;;;;;;;9.18;6.30;;;;;;;28.16;48.40;96178.69;5133876;27;20047;-64
2022/08/19 05:14:49;;;;;;;7.18;6.47;;;;;;;28.44;47.03;96172.81;5133941;28;20100;-65
2022/08/19 05:17:16;;;;;;;7.97;6.70;;;;;;;28.83;46.54;96165.56;5133964;27;20050;-64
2022/08/19 05:22:35;;;;;;;9.98;6.47;;;;;;;29.83;46.80;96162.56;5133890;28;20161;-66
2022/08/19 05:25:06;;;;;;;7.88;7.00;;;;;;;30.21;45.53;96164.25;5133938;27;20138;-62
2022/08/19 05:27:34;;;;;;;8.38;6.53;;;;;;;30.58;44.68;96174.13;5133701;27;20040;-66
2022/08/19 05:30:01;;;;;;;12.18;7.18;;;;;;;30.95;43.56;96171.31;5135146;27;20051;-66
2022/08/19 05:32:28;;;;;;;7.40;6.75;;;;;;;31.33;42.52;96165.53;5137866;27;20047;-59
2022/08/19 05:34:56;;;;;;;15.00;7.50;;;;;;;31.67;41.63;96167.56;5137824;27;20043;-66
2022/08/19 05:37:26;;;;;;;8.40;7.25;;;;;;;31.93;40.35;96166.03;5137723;27;20050;-70
2022/08/19 05:39:55;;;;;;;8.95;6.88;;;;;;;32.17;38.93;96180.03;5137659;27;20043;-68
2022/08/19 05:42:23;;;;;;;10.90;6.63;;;;;;;32.33;38.72;96178.81;5137617;27;20542;-64
2022/08/19 05:44:50;;;;;;;8.88;6.65;;;;;;;32.61;37.10;96177.81;5137348;27;20137;-68
2022/08/19 05:47:19;;;;;;;8.95;7.05;;;;;;;32.88;36.46;96180.50;5137441;27;20103;-62
2022/08/19 05:49:46;;;;;;;11.70;7.13;;;;;;;32.81;35.16;96174.28;5137464;27;20047;-64
2022/08/19 05:52:16;;;;;;;9.27;6.63;;;;;;;32.96;35.44;96177.56;5137058;27;20050;-65
2022/08/19 05:54:47;;;;;;;10.23;6.50;;;;;;;33.26;34.86;96181.75;5137414;27;20584;-69
2022/08/19 05:57:16;;;;;;;9.45;7.03;;;;;;;33.55;35.34;96187.69;5137096;27;20054;-61
2022/08/19 05:59:45;;;;;;;8.13;7.18;;;;;;;33.80;35.48;96188.88;5137409;27;20043;-64
2022/08/19 06:02:13;;;;;;;7.13;6.35;;;;;;;33.90;34.68;96192.81;5137236;27;20039;-69
2022/08/19 06:04:42;;;;;;;8.07;6.30;;;;;;;34.07;35.71;96191.47;5137093;27;20138;-70
2022/08/19 06:07:09;;;;;;;9.45;6.43;;;;;;;34.35;35.65;96190.28;5137408;27;20039;-66
2022/08/19 06:09:37;;;;;;;8.18;6.35;;;;;;;34.39;34.12;96189.63;5137078;27;20493;-69
2022/08/19 06:12:04;;;;;;;7.10;6.10;;;;;;;34.43;32.82;96195.44;5137052;27;20043;-62
2022/08/19 06:14:35;;;;;;;7.18;6.47;;;;;;;34.71;33.35;96193.38;5136926;27;20047;-64
2022/08/19 06:17:04;;;;;;;9.00;6.47;;;;;;;34.96;31.97;96195.25;5136995;27;20408;-66
2022/08/19 06:19:32;;;;;;;15.57;6.40;;;;;;;34.92;30.37;96192.19;5137122;27;20043;-66
2022/08/19 06:22:01;;;;;;;6.75;6.05;;;;;;;34.80;30.95;96189.34;5136769;27;20396;-62
2022/08/19 06:24:31;;;;;;;9.70;6.15;;;;;;;34.61;29.39;96185.72;5136899;27;20480;-65
2022/08/19 06:27:00;;;;;;;8.57;6.13;;;;;;;34.34;30.80;96189.44;5136746;27;20077;-69
2022/08/19 06:29:29;;;;;;;6.90;5.75;;;;;;;33.84;30.14;96190.13;5136681;27;20411;-63
2022/08/19 06:31:59;;;;;;;7.00;5.47;;;;;;;33.35;30.73;96183.16;5136573;27;20043;-64
2022/08/19 06:34:29;;;;;;;8.45;6.35;;;;;;;33.27;32.00;96184.25;5136669;27;20051;-69
2022/08/19 06:37:00;;;;;;;7.47;5.55;;;;;;;33.27;32.05;96186.13;5136486;27;20047;-68
2022/08/19 06:39:30;;;;;;;8.45;6.00;;;;;;;33.72;32.46;96184.53;5136346;27;20471;-68
2022/08/19 06:42:02;;;;;;;14.88;6.20;;;;;;;34.06;31.51;96182.50;5135970;27;20058;-69
2022/08/19 06:44:35;;;;;;;8.15;5.45;;;;;;;33.73;30.39;96180.78;5136396;27;20096;-69
2022/08/19 06:47:05;;;;;;;11.82;5.95;;;;;;;33.84;31.53;96182.81;5136301;27;20047;-62
2022/08/19 06:49:33;;;;;;;6.40;5.85;;;;;;;34.09;31.75;96187.47;5136302;27;20496;-70
2022/08/19 06:52:01;;;;;;;8.43;5.90;;;;;;;33.81;30.65;96183.25;5135947;27;20496;-66
2022/08/19 06:54:29;;;;;;;8.25;6.22;;;;;;;33.58;30.62;96183.72;5136033;27;20043;-64
2022/08/19 06:56:57;;;;;;;6.82;5.88;;;;;;;33.48;31.43;96178.75;5136075;27;20085;-63
2022/08/19 06:59:27;;;;;;;8.05;5.68;;;;;;;33.80;31.84;96178.88;5135716;27;20051;-63
2022/08/19 07:01:58;;;;;;;6.72;5.60;;;;;;;34.11;30.82;96182.69;5136080;27;20122;-64
2022/08/19 07:04:29;;;;;;;9.55;5.75;;;;;;;34.16;30.42;96187.50;5135988;27;20129;-66
2022/08/19 07:07:00;;;;;;;11.02;6.00;;;;;;;34.40;31.26;96190.47;5136011;27;20043;-65
2022/08/19 07:09:29;;;;;;;9.98;5.95;;;;;;;34.64;29.04;96185.28;5135909;27;20095;-64
2022/08/19 07:11:57;;;;;;;6.15;5.53;;;;;;;34.85;29.76;96189.50;5135782;27;20051;-68
2022/08/19 07:14:26;;;;;;;8.27;5.18;;;;;;;35.20;29.25;96181.91;5135888;27;20039;-68
2022/08/19 07:16:55;;;;;;;8.15;4.97;;;;;;;35.33;29.69;96191.81;5135692;27;20050;-65
2022/08/19 07:19:25;;;;;;;8.95;5.57;;;;;;;35.50;29.60;96184.72;5135669;27;20499;-64
2022/08/19 07:21:54;;;;;;;;;;;;;;;35.92;28.79;96188.63;5136050;27;20099;-71
2022/08/19 07:24:24;;;;;;;7.35;5.75;;;;;;;35.93;27.14;96184.84;5135537;27;20341;-65
2022/08/19 07:26:54;;;;;;;8.05;5.55;;;;;;;36.01;27.04;96186.41;5135417;27;20047;-67
2022/08/19 07:29:23;;;;;;;7.32;5.32;;;;;;;36.24;27.40;96190.31;5135456;27;20069;-61
2022/08/19 07:31:51;;;;;;;7.33;5.83;;;;;;;36.68;27.87;96190.06;5135361;27;20058;-69
2022/08/19 07:34:19;;;;;;;8.55;5.53;;;;;;;36.86;26.82;96185.59;5135164;27;20055;-67
2022/08/19 07:36:46;;;;;;;7.07;5.78;;;;;;;37.04;27.83;96187.38;5135272;27;20039;-63
2022/08/19 07:39:19;;;;;;;6.65;5.88;;;;;;;37.24;26.85;96189.81;5135335;27;20074;-68
2022/08/19 07:41:47;;;;;;;7.95;5.68;;;;;;;36.82;27.01;96179.81;5135088;27;20051;-71
2022/08/19 07:44:15;;;;;;;6.75;5.25;;;;;;;36.97;26.47;96182.06;5135029;27;20476;-62
2022/08/19 07:46:46;;;;;;;6.40;5.10;;;;;;;36.53;25.28;96185.06;5134927;27;20503;-67
2022/08/19 07:49:17;;;;;;;7.40;5.25;;;;;;;36.63;25.90;96188.03;5135052;27;20047;-69
2022/08/19 07:51:45;;;;;;;7.28;4.90;;;;;;;36.36;24.12;96177.56;5133802;27;20043;-64
2022/08/19 07:54:12;;;;;;;8.63;5.22;;;;;;;36.06;26.16;96183.00;5134394;27;20092;-65
2022/08/19 07:56:41;;;;;;;7.25;5.40;;;;;;;35.29;26.08;96178.69;5134765;27;20051;-65
2022/08/19 07:59:09;;;;;;;5.75;4.90;;;;;;;35.09;27.11;96175.31;5134556;27;20186;-64
2022/08/19 08:01:37;;;;;;;8.10;5.03;;;;;;;35.01;27.12;96171.00;5134579;27;20163;-63
2022/08/19 08:09:44;;;;;;;8.80;4.90;;;;;;;35.04;26.82;96160.50;5109586;27;20555;-61
2022/08/19 08:12:15;;;;;;;8.05;5.35;;;;;;;34.48;27.74;96168.47;5134519;27;20051;-69
2022/08/19 08:14:46;;;;;;;7.72;5.68;;;;;;;34.27;27.97;96170.50;5134522;27;20047;-65
2022/08/19 08:17:14;;;;;;;6.80;5.20;;;;;;;34.12;27.48;96165.38;5134467;27;20088;-66
2022/08/19 08:19:42;;;;;;;8.65;5.35;;;;;;;34.15;27.73;96169.53;5134572;27;20069;-66
2022/08/19 08:23:22;;;;;;;5.57;4.90;;;;;;;34.32;27.38;96169.00;5134456;27;20462;-64
2022/08/19 08:25:01;;;;;;;6.25;5.35;;;;;;;34.53;27.44;96167.81;5134395;27;20047;-69
2022/08/19 08:27:30;;;;;;;9.50;4.90;;;;;;;34.67;27.35;96165.84;5134372;27;20047;-65
2022/08/19 08:29:58;;;;;;;8.67;4.60;;;;;;;34.84;28.11;96168.84;5134487;27;20051;-64
2022/08/19 08:32:26;;;;;;;8.15;4.97;;;;;;;34.68;27.32;96178.38;5134480;27;20283;-65
2022/08/19 08:34:54;;;;;;;6.13;5.18;;;;;;;34.62;27.22;96173.81;5134253;27;20055;-62
2022/08/19 08:37:22;;;;;;;5.45;4.95;;;;;;;34.61;27.25;96180.28;5134225;27;20057;-68
2022/08/19 08:39:49;;;;;;;7.07;5.30;;;;;;;34.62;27.41;96180.06;5134347;27;20043;-69
2022/08/19 08:42:23;;;;;;;9.00;5.30;;;;;;;34.75;26.83;96170.16;5134129;27;20420;-62
2022/08/19 08:44:59;;;;;;;5.63;5.13;;;;;;;34.50;27.60;96171.81;5134477;27;20516;-67
2022/08/19 08:47:30;;;;;;;10.15;5.30;;;;;;;33.91;28.17;96161.09;5134076;27;20122;-65
2022/08/19 08:50:03;;;;;;;6.55;5.38;;;;;;;34.09;28.51;96159.53;5134062;27;20074;-71
2022/08/19 08:52:35;;;;;;;8.05;5.53;;;;;;;34.40;27.93;96153.28;5133925;27;20122;-65
2022/08/19 08:55:08;;;;;;;7.05;5.25;;;;;;;34.48;28.16;96159.50;5134144;27;20047;-63
2022/08/19 08:57:39;;;;;;;6.03;5.53;;;;;;;34.07;27.96;96158.91;5134013;28;20043;-67
2022/08/19 09:00:16;;;;;;;6.00;5.40;;;;;;;33.94;28.32;96165.22;5134196;27;20043;-65
2022/08/19 09:02:43;;;;;;;5.72;4.90;;;;;;;33.87;28.06;96160.69;5134311;27;20047;-65
2022/08/19 09:05:12;;;;;;;6.65;5.32;;;;;;;33.83;28.03;96148.59;5137440;27;20047;-61
2022/08/19 09:07:51;;;;;;;6.95;5.07;;;;;;;33.84;28.27;96158.41;5138170;27;20043;-70
2022/08/19 09:10:23;;;;;;;5.85;5.25;;;;;;;33.70;27.98;96154.09;5138254;27;20122;-67
2022/08/19 09:13:10;;;;;;;7.97;5.47;;;;;;;33.65;28.04;96158.28;5137996;27;20039;-67
2022/08/19 09:15:45;;;;;;;6.75;5.07;;;;;;;33.53;28.07;96149.97;5138244;27;20549;-64
2022/08/19 09:18:13;;;;;;;10.20;5.60;;;;;;;33.24;28.46;96151.31;5138077;27;20065;-66
2022/08/19 09:20:40;;;;;;;7.90;4.88;;;;;;;32.95;29.18;96146.13;5137989;27;20043;-59
2022/08/19 09:23:07;;;;;;;10.50;5.45;;;;;;;32.91;28.50;96150.31;5138210;27;20039;-66
2022/08/19 09:25:35;;;;;;;8.18;5.28;;;;;;;32.75;29.43;96147.00;5137789;27;20100;-60
2022/08/19 09:28:03;;;;;;;6.22;5.30;;;;;;;32.75;30.26;96143.47;5137777;27;20070;-67
2022/08/19 09:30:34;;;;;;;7.10;5.25;;;;;;;33.27;29.58;96148.19;5137920;27;20131;-65
2022/08/19 09:33:03;;;;;;;6.32;5.00;;;;;;;33.11;28.93;96144.88;5137578;27;20533;-69
2022/08/19 09:35:31;;;;;;;6.65;5.40;;;;;;;32.97;29.09;96140.50;5137620;27;20404;-61
2022/08/19 09:38:00;;;;;;;13.25;5.32;;;;;;;33.25;29.30;96140.28;5137579;27;20058;-62
2022/08/19 09:40:28;;;;;;;7.18;5.13;;;;;;;33.78;28.03;96138.44;5137812;27;20050;-69
2022/08/19 09:42:56;;;;;;;5.60;4.90;;;;;;;34.25;27.75;96136.50;5137462;27;20039;-69
2022/08/19 09:45:24;;;;;;;10.98;5.88;;;;;;;34.45;26.71;96136.34;5137418;27;20051;-67
2022/08/19 09:47:54;;;;;;;8.25;4.97;;;;;;;34.77;27.32;96135.50;5137422;27;20047;-62
2022/08/19 09:50:24;;;;;;;5.47;4.97;;;;;;;35.07;27.66;96140.22;5137402;27;20051;-62
2022/08/19 09:52:53;;;;;;;6.18;5.18;;;;;;;35.29;26.31;96128.94;5137371;27;20047;-65
2022/08/19 09:55:20;;;;;;;6.03;5.28;;;;;;;35.31;25.27;96129.53;5137198;27;20096;-67
2022/08/19 09:57:47;;;;;;;6.53;5.22;;;;;;;35.10;25.30;96128.91;5137151;27;20047;-62
2022/08/19 10:00:17;;;;;;;6.68;5.20;;;;;;;34.98;25.32;96123.38;5137388;27;20044;-68
2022/08/19 10:02:44;;;;;;;7.80;5.65;;;;;;;34.62;26.10;96119.50;5137073;27;20056;-64
2022/08/19 10:08:00;;;;;;;5.97;5.00;;;;;;;34.01;27.55;96122.66;5137234;27;20050;-71
2022/08/19 10:10:28;;;;;;;5.82;5.00;;;;;;;33.76;27.03;96126.97;5137194;27;20511;-69
2022/08/19 10:12:55;;;;;;;11.38;5.53;;;;;;;33.45;27.50;96133.97;5136828;27;20092;-61
2022/08/19 10:15:23;;;;;;;6.22;4.93;;;;;;;33.44;28.10;96128.75;5136240;27;20055;-68
2022/08/19 10:17:50;;;;;;;6.53;5.20;;;;;;;33.48;27.85;96127.28;5136972;27;20438;-69
2022/08/19 10:20:17;;;;;;;9.95;5.53;;;;;;;33.65;27.96;96128.47;5136759;27;20130;-64
2022/08/19 10:22:44;;;;;;;9.88;5.38;;;;;;;33.69;27.15;96125.34;5136748;27;20058;-66
2022/08/19 10:25:16;;;;;;;9.48;5.63;;;;;;;33.83;26.87;96113.34;5136883;27;20073;-67
2022/08/19 10:27:43;;;;;;;10.38;5.30;;;;;;;34.03;27.49;96115.97;5136761;27;20043;-61
2022/08/19 10:30:12;;;;;;;9.18;5.28;;;;;;;34.27;27.03;96115.41;5137054;27;20090;-67
2022/08/19 10:32:39;;;;;;;6.13;4.90;;;;;;;34.17;26.60;96105.06;5136632;27;20082;-70
2022/08/19 10:35:08;;;;;;;4.93;4.43;;;;;;;34.23;28.15;96116.91;5136541;27;20142;-63
2022/08/19 10:37:37;;;;;;;5.15;4.63;;;;;;;34.06;27.53;96120.09;5136500;27;20476;-62
2022/08/19 10:40:06;;;;;;;11.45;5.53;;;;;;;34.00;27.91;96113.69;5136403;27;20069;-62
2022/08/19 10:42:35;;;;;;;6.57;4.97;;;;;;;33.77;27.70;96109.63;5136459;27;20096;-64
2022/08/19 10:45:06;;;;;;;7.93;5.35;;;;;;;33.32;27.82;96113.19;5136423;27;20058;-67
2022/08/19 10:47:34;;;;;;;7.63;5.25;;;;;;;33.33;28.53;96114.00;5136345;27;20093;-64
2022/08/19 10:52:50;;;;;;;8.50;5.15;;;;;;;33.62;27.86;96109.13;5136365;27;20046;-64
2022/08/19 10:58:13;;;;;;;6.57;4.65;;;;;;;33.41;26.93;96106.44;5136011;27;20054;-64
2022/08/19 11:00:42;;;;;;;7.43;4.43;;;;;;;33.57;27.95;96089.91;5136032;27;20138;-64
2022/08/19 11:03:09;;;;;;;5.43;4.72;;;;;;;34.00;27.34;96089.28;5135902;27;20043;-63
2022/08/19 11:05:37;;;;;;;5.07;4.57;;;;;;;34.18;26.97;96093.16;5135599;27;20055;-68
2022/08/19 11:08:05;;;;;;;9.30;4.95;;;;;;;34.10;26.85;96093.41;5135854;27;20074;-65
2022/08/19 11:10:36;;;;;;;7.10;4.68;;;;;;;34.06;27.01;96082.13;5135856;27;20047;-67
2022/08/19 11:13:03;;;;;;;4.65;4.25;;;;;;;34.09;26.64;96083.56;5135757;27;20046;-66
2022/08/19 11:15:32;;;;;;;6.22;5.03;;;;;;;34.00;25.83;96086.56;5135635;27;20051;-67
2022/08/19 11:17:59;;;;;;;6.53;4.50;;;;;;;33.71;26.43;96079.88;5135807;27;20047;-70
2022/08/19 11:20:27;;;;;;;4.75;4.18;;;;;;;33.69;26.51;96087.38;5135910;27;20039;-66
2022/08/19 11:22:55;;;;;;;6.03;4.70;;;;;;;33.77;26.27;96077.09;5135486;27;20051;-67
2022/08/19 11:25:22;;;;;;;5.53;4.57;;;;;;;34.01;26.51;96085.50;5135455;27;20050;-66
2022/08/19 11:27:51;;;;;;;7.50;4.15;;;;;;;34.37;25.55;96068.81;5134441;27;20127;-63
2022/08/19 11:30:19;;;;;;;5.65;3.80;;;;;;;34.44;25.25;96074.16;5135628;27;20046;-66
2022/08/19 11:32:47;;;;;;;5.88;4.30;;;;;;;34.28;25.88;96079.09;5135327;27;20484;-64
2022/08/19 11:35:15;;;;;;;4.78;4.32;;;;;;;33.89;26.30;96069.09;5135120;27;20086;-67
2022/08/19 11:37:42;;;;;;;6.25;4.45;;;;;;;33.83;26.13;96069.97;5135246;27;20051;-61
2022/08/19 11:40:11;;;;;;;6.78;4.95;;;;;;;33.83;26.83;96072.69;5135230;27;20144;-64
2022/08/19 11:42:56;;;;;;;5.07;4.55;;;;;;;33.76;26.98;96080.03;5135179;27;20039;-61
2022/08/19 11:45:24;;;;;;;9.00;4.80;;;;;;;34.00;26.21;96064.88;5135213;27;20430;-63
2022/08/19 11:47:54;;;;;;;5.18;4.65;;;;;;;33.97;25.28;96072.59;5135064;27;20047;-67
2022/08/19 11:50:23;;;;;;;6.40;4.13;;;;;;;33.99;25.58;96065.94;5135151;27;20134;-64
2022/08/19 11:52:51;;;;;;;6.38;4.10;;;;;;;34.10;25.98;96077.13;5134939;27;20480;-64
2022/08/19 11:55:19;;;;;;;5.90;4.15;;;;;;;34.04;26.06;96084.25;5134811;27;20043;-65
2022/08/19 11:57:47;;;;;;;7.70;4.85;;;;;;;33.88;26.26;96075.59;5134792;27;20051;-67